SBARSBIL

Guest
Details From SBAR - SANTA MARIA
To SBIL - Ilheus
Flight Number -
Tags generated
Created
Modified
Stats Distance 259 nm / 480 km
Max Altitude 24,500 ft / 7,468 m
Waypoints 7
Social Downloads 0
Likes 0
Share VATSIM

Download

Looking for another format? Having issues loading an existing format? Contact us
Advertisement - Login to hide

Notes

Basic altitude profile: - Ascent Rate: 2500ft/min - Ascent Speed: 250kts - Cruise Altitude: 3100000ft - Cruise Speed: 420kts - Descent Rate: 1500ft/min - Descent Speed: 250kts Options: - Use NATs: yes - Use PACOTS: yes - Use low airways: yes - Use high airways: yes

Route

SBAR ACJ G677 YLH SBIL

ID Type Via Altitude Latitude Longitude Leg Dist Tot Dist Heading (true) Name
O SBAR APT - 0 ft / 0 m -10.98400˚ -37.07033˚ - 0 nm - SANTA MARIA
ACJ NDB - 100 ft / 30 m -10.98810˚ -37.07369˚ 0 nm 0 nm 219° / 219° ARACAJU NDB
CONDE FIX G677 (AWY-LO) 24,300 ft / 7,407 m -11.94150˚ -37.69200˚ 67 nm 68 nm 212° / 213° -
SVD VOR G677 (AWY-LO) 24,500 ft / 7,468 m -12.90642˚ -38.32136˚ 68 nm 136 nm 212° / 213° SALVADOR VOR-DME
CORAL FIX G677 (AWY-LO) 12,200 ft / 3,719 m -13.84967˚ -38.67383˚ 60 nm 197 nm 200° / 200° -
YLH NDB G677 (AWY-LO) 4,500 ft / 1,372 m -14.81217˚ -39.03667˚ 61 nm 258 nm 200° / 200° ILHEUS NDB
O SBIL APT - 0 ft / 0 m -14.81596˚ -39.03320˚ 0 nm 258 nm 139° / 139° Ilheus

Altitude Profile

Advertisement - Login to hide

Weather


0- 5 10 15 20 25 30 35+ Temperature / ° C

Clouds and Precipitation
Forecast for 2018-05-26 12:00 UTC. Updated 4 hours ago

Ground ~20,000 ft ~40,000 ft Winds

SBAR

Details ICAO SBAR (AJU)
Name SANTA MARIA
Region Brazil
Timezone America/Maceio (UTC-3.0)
Stats Elevation 23 ft / 7 m (AMSL)
Location -10.984000° -37.070333°
Runways 1
Magnetic Variation 23.050° W

METAR

SBAR 261400Z 11015KT 9999 SCT020 29/19 Q1016

Decode

TAF

TAF SBAR 261000Z 2612/2624 15010KT 8000 SCT015 TX29/2615Z TN27/2623Z PROB30 TEMPO 2613/2614 5000 SHRA SCT012 BKN017 RMK PEI

Decode

Departure Runways

ID Width Length Bearing (true) Bearing (mag) Surface Threshold Offset Overrun Length
11 148 ft / 45 m 7,228 ft / 2,203 m 91.93° 114.98° Asphalt 0 ft / 0 m 200 ft / 61 m
29 148 ft / 45 m 7,228 ft / 2,203 m 271.92° 294.97° Asphalt 0 ft / 0 m 200 ft / 61 m

SBIL

Details ICAO SBIL (IOS)
Name Ilheus
Region Brazil
Timezone America/Bahia (UTC-3.0)
Stats Elevation 15 ft / 5 m (AMSL)
Location -14.815964° -39.033197°
Runways 1
Magnetic Variation 23.700° W

METAR

Not found

TAF

TAF SBIL 261000Z 2612/2624 20007KT 7000 SCT010 BKN017 TX26/2616Z TN24/2623Z TEMPO 2612/2614 5000 RA BECMG 2615/2616 17009KT SCT023 PROB30 TEMPO 2620/2622 4000 SHRA SCT010 BKN016 RMK PEI

Decode

Destination Runways

ID Width Length Bearing (true) Bearing (mag) Surface Threshold Offset Overrun Length
11 148 ft / 45 m 5,127 ft / 1,563 m 88.35° 112.05° Asphalt 0 ft / 0 m 190 ft / 58 m
29 148 ft / 45 m 5,127 ft / 1,563 m 268.34° 292.04° Asphalt 0 ft / 0 m 160 ft / 49 m

Popular Alternatives